sensor_id;sensor_type;location;lat;lon;timestamp;P1;durP1;ratioP1;P2;durP2;ratioP2
7473;SDS011;3778;42.572;23.426;2022-11-20T00:01:17;3.93;;;1.77;;
7473;SDS011;3778;42.572;23.426;2022-11-20T00:03:45;3.47;;;1.70;;
7473;SDS011;3778;42.572;23.426;2022-11-20T00:06:13;3.53;;;1.50;;
7473;SDS011;3778;42.572;23.426;2022-11-20T00:08:43;1.67;;;1.40;;
7473;SDS011;3778;42.572;23.426;2022-11-20T00:11:11;3.33;;;1.30;;
7473;SDS011;3778;42.572;23.426;2022-11-20T00:13:39;5.90;;;1.60;;
7473;SDS011;3778;42.572;23.426;2022-11-20T00:16:06;2.63;;;1.40;;
7473;SDS011;3778;42.572;23.426;2022-11-20T00:18:35;2.77;;;1.33;;
7473;SDS011;3778;42.572;23.426;2022-11-20T00:21:02;1.73;;;1.40;;
7473;SDS011;3778;42.572;23.426;2022-11-20T00:23:29;1.50;;;1.40;;
7473;SDS011;3778;42.572;23.426;2022-11-20T00:26:02;2.97;;;1.20;;
7473;SDS011;3778;42.572;23.426;2022-11-20T00:28:29;2.43;;;1.63;;
7473;SDS011;3778;42.572;23.426;2022-11-20T00:31:00;6.23;;;1.57;;
7473;SDS011;3778;42.572;23.426;2022-11-20T00:33:28;4.43;;;1.33;;
7473;SDS011;3778;42.572;23.426;2022-11-20T00:35:58;4.03;;;1.43;;
7473;SDS011;3778;42.572;23.426;2022-11-20T00:38:25;4.77;;;1.60;;
7473;SDS011;3778;42.572;23.426;2022-11-20T00:40:54;3.30;;;1.37;;
7473;SDS011;3778;42.572;23.426;2022-11-20T00:43:23;3.67;;;1.47;;
7473;SDS011;3778;42.572;23.426;2022-11-20T00:45:50;1.47;;;1.20;;
7473;SDS011;3778;42.572;23.426;2022-11-20T00:48:22;1.40;;;1.30;;
7473;SDS011;3778;42.572;23.426;2022-11-20T00:50:49;4.10;;;1.30;;
7473;SDS011;3778;42.572;23.426;2022-11-20T00:53:15;2.67;;;1.47;;
7473;SDS011;3778;42.572;23.426;2022-11-20T00:55:42;2.63;;;1.60;;
7473;SDS011;3778;42.572;23.426;2022-11-20T00:58:09;7.77;;;1.93;;
7473;SDS011;3778;42.572;23.426;2022-11-20T01:00:37;5.73;;;1.73;;
7473;SDS011;3778;42.572;23.426;2022-11-20T01:03:04;6.93;;;1.80;;
7473;SDS011;3778;42.572;23.426;2022-11-20T01:05:33;3.60;;;1.53;;
7473;SDS011;3778;42.572;23.426;2022-11-20T01:08:00;2.87;;;1.30;;
7473;SDS011;3778;42.572;23.426;2022-11-20T01:10:27;2.60;;;1.23;;
7473;SDS011;3778;42.572;23.426;2022-11-20T01:12:54;2.17;;;1.30;;
7473;SDS011;3778;42.572;23.426;2022-11-20T01:15:34;3.50;;;1.60;;
7473;SDS011;3778;42.572;23.426;2022-11-20T01:18:03;2.40;;;1.50;;
7473;SDS011;3778;42.572;23.426;2022-11-20T01:20:30;1.57;;;1.40;;
7473;SDS011;3778;42.572;23.426;2022-11-20T01:23:01;1.70;;;1.23;;
7473;SDS011;3778;42.572;23.426;2022-11-20T01:25:27;2.70;;;1.30;;
7473;SDS011;3778;42.572;23.426;2022-11-20T01:27:55;3.10;;;1.23;;
7473;SDS011;3778;42.572;23.426;2022-11-20T01:30:21;6.23;;;1.20;;
7473;SDS011;3778;42.572;23.426;2022-11-20T01:32:48;2.00;;;1.10;;
7473;SDS011;3778;42.572;23.426;2022-11-20T01:35:16;5.30;;;1.43;;
7473;SDS011;3778;42.572;23.426;2022-11-20T01:37:43;3.27;;;1.60;;
7473;SDS011;3778;42.572;23.426;2022-11-20T01:40:10;3.37;;;1.40;;
7473;SDS011;3778;42.572;23.426;2022-11-20T01:42:38;2.33;;;1.30;;
7473;SDS011;3778;42.572;23.426;2022-11-20T01:48:22;5.10;;;1.50;;
7473;SDS011;3778;42.572;23.426;2022-11-20T01:50:53;4.20;;;1.30;;
7473;SDS011;3778;42.572;23.426;2022-11-20T01:53:21;2.77;;;1.30;;
7473;SDS011;3778;42.572;23.426;2022-11-20T01:55:52;1.37;;;0.87;;
7473;SDS011;3778;42.572;23.426;2022-11-20T01:58:22;2.40;;;1.30;;
7473;SDS011;3778;42.572;23.426;2022-11-20T02:00:53;3.53;;;1.30;;
7473;SDS011;3778;42.572;23.426;2022-11-20T02:03:20;4.77;;;1.37;;
7473;SDS011;3778;42.572;23.426;2022-11-20T02:05:48;2.73;;;1.23;;
7473;SDS011;3778;42.572;23.426;2022-11-20T02:08:20;1.00;;;0.90;;
7473;SDS011;3778;42.572;23.426;2022-11-20T02:10:48;1.53;;;1.20;;
7473;SDS011;3778;42.572;23.426;2022-11-20T02:13:14;4.50;;;1.80;;
7473;SDS011;3778;42.572;23.426;2022-11-20T02:15:59;1.13;;;1.00;;
7473;SDS011;3778;42.572;23.426;2022-11-20T02:18:26;2.87;;;1.30;;
7473;SDS011;3778;42.572;23.426;2022-11-20T02:20:54;1.83;;;1.17;;
7473;SDS011;3778;42.572;23.426;2022-11-20T02:23:30;1.17;;;1.07;;
7473;SDS011;3778;42.572;23.426;2022-11-20T02:26:03;1.20;;;1.10;;
7473;SDS011;3778;42.572;23.426;2022-11-20T02:28:34;1.00;;;0.90;;
7473;SDS011;3778;42.572;23.426;2022-11-20T02:31:01;3.10;;;1.03;;
7473;SDS011;3778;42.572;23.426;2022-11-20T02:33:28;3.67;;;1.20;;
7473;SDS011;3778;42.572;23.426;2022-11-20T02:35:54;2.53;;;1.43;;
7473;SDS011;3778;42.572;23.426;2022-11-20T02:38:21;1.20;;;1.10;;
7473;SDS011;3778;42.572;23.426;2022-11-20T02:40:48;3.07;;;1.17;;
7473;SDS011;3778;42.572;23.426;2022-11-20T02:43:16;1.97;;;1.00;;
7473;SDS011;3778;42.572;23.426;2022-11-20T02:45:43;2.00;;;1.20;;
7473;SDS011;3778;42.572;23.426;2022-11-20T02:48:10;1.37;;;1.10;;
7473;SDS011;3778;42.572;23.426;2022-11-20T02:50:37;2.03;;;1.17;;
7473;SDS011;3778;42.572;23.426;2022-11-20T02:53:05;2.47;;;1.20;;
7473;SDS011;3778;42.572;23.426;2022-11-20T02:55:32;1.50;;;1.20;;
7473;SDS011;3778;42.572;23.426;2022-11-20T02:57:59;3.53;;;1.10;;
7473;SDS011;3778;42.572;23.426;2022-11-20T03:00:27;1.53;;;1.10;;
7473;SDS011;3778;42.572;23.426;2022-11-20T03:02:54;2.07;;;1.33;;
7473;SDS011;3778;42.572;23.426;2022-11-20T03:05:21;6.53;;;1.40;;
7473;SDS011;3778;42.572;23.426;2022-11-20T03:07:48;2.10;;;1.30;;
7473;SDS011;3778;42.572;23.426;2022-11-20T03:10:15;3.63;;;1.20;;
7473;SDS011;3778;42.572;23.426;2022-11-20T03:12:42;2.93;;;1.37;;
7473;SDS011;3778;42.572;23.426;2022-11-20T03:15:09;3.07;;;1.10;;
7473;SDS011;3778;42.572;23.426;2022-11-20T03:17:38;3.57;;;1.70;;
7473;SDS011;3778;42.572;23.426;2022-11-20T03:20:05;3.73;;;1.20;;
7473;SDS011;3778;42.572;23.426;2022-11-20T03:22:34;3.00;;;1.50;;
7473;SDS011;3778;42.572;23.426;2022-11-20T03:25:00;1.53;;;1.30;;
7473;SDS011;3778;42.572;23.426;2022-11-20T03:27:31;2.83;;;1.50;;
7473;SDS011;3778;42.572;23.426;2022-11-20T03:29:58;3.10;;;1.53;;
7473;SDS011;3778;42.572;23.426;2022-11-20T03:32:25;1.60;;;1.27;;
7473;SDS011;3778;42.572;23.426;2022-11-20T03:34:53;2.53;;;1.33;;
7473;SDS011;3778;42.572;23.426;2022-11-20T03:37:20;1.47;;;1.23;;
7473;SDS011;3778;42.572;23.426;2022-11-20T03:39:47;4.33;;;1.43;;
7473;SDS011;3778;42.572;23.426;2022-11-20T03:42:13;1.07;;;1.03;;
7473;SDS011;3778;42.572;23.426;2022-11-20T03:44:54;2.03;;;1.27;;
7473;SDS011;3778;42.572;23.426;2022-11-20T03:47:21;1.30;;;1.20;;
7473;SDS011;3778;42.572;23.426;2022-11-20T03:49:48;5.77;;;1.53;;
7473;SDS011;3778;42.572;23.426;2022-11-20T03:52:16;2.60;;;1.20;;
7473;SDS011;3778;42.572;23.426;2022-11-20T03:54:43;4.17;;;1.20;;
7473;SDS011;3778;42.572;23.426;2022-11-20T03:57:10;2.00;;;1.47;;
7473;SDS011;3778;42.572;23.426;2022-11-20T03:59:37;1.37;;;1.10;;
7473;SDS011;3778;42.572;23.426;2022-11-20T04:02:03;4.30;;;1.27;;
7473;SDS011;3778;42.572;23.426;2022-11-20T04:04:30;1.70;;;1.10;;
7473;SDS011;3778;42.572;23.426;2022-11-20T04:06:57;5.70;;;1.33;;
7473;SDS011;3778;42.572;23.426;2022-11-20T04:09:25;1.40;;;1.30;;
7473;SDS011;3778;42.572;23.426;2022-11-20T04:11:52;1.73;;;1.40;;
7473;SDS011;3778;42.572;23.426;2022-11-20T04:14:19;8.93;;;1.50;;
7473;SDS011;3778;42.572;23.426;2022-11-20T04:16:45;1.73;;;1.27;;
7473;SDS011;3778;42.572;23.426;2022-11-20T04:19:13;4.30;;;1.70;;
7473;SDS011;3778;42.572;23.426;2022-11-20T04:21:41;3.67;;;1.13;;
7473;SDS011;3778;42.572;23.426;2022-11-20T04:24:09;3.47;;;1.30;;
7473;SDS011;3778;42.572;23.426;2022-11-20T04:26:38;3.03;;;1.13;;
7473;SDS011;3778;42.572;23.426;2022-11-20T04:29:05;3.87;;;1.60;;
7473;SDS011;3778;42.572;23.426;2022-11-20T04:31:33;4.87;;;1.40;;
7473;SDS011;3778;42.572;23.426;2022-11-20T04:34:00;2.70;;;1.10;;
7473;SDS011;3778;42.572;23.426;2022-11-20T04:36:28;6.30;;;1.30;;
7473;SDS011;3778;42.572;23.426;2022-11-20T04:38:56;7.40;;;1.60;;
7473;SDS011;3778;42.572;23.426;2022-11-20T04:41:24;4.37;;;1.20;;
7473;SDS011;3778;42.572;23.426;2022-11-20T04:43:55;2.73;;;1.40;;
7473;SDS011;3778;42.572;23.426;2022-11-20T04:46:24;5.13;;;1.30;;
7473;SDS011;3778;42.572;23.426;2022-11-20T04:48:52;3.30;;;1.20;;
7473;SDS011;3778;42.572;23.426;2022-11-20T04:51:19;5.47;;;1.80;;
7473;SDS011;3778;42.572;23.426;2022-11-20T04:53:46;2.23;;;1.40;;
7473;SDS011;3778;42.572;23.426;2022-11-20T04:56:13;2.57;;;1.37;;
7473;SDS011;3778;42.572;23.426;2022-11-20T04:58:40;5.47;;;1.50;;
7473;SDS011;3778;42.572;23.426;2022-11-20T05:01:09;5.10;;;1.33;;
7473;SDS011;3778;42.572;23.426;2022-11-20T05:03:38;4.40;;;1.30;;
7473;SDS011;3778;42.572;23.426;2022-11-20T05:06:06;8.60;;;1.93;;
7473;SDS011;3778;42.572;23.426;2022-11-20T05:08:33;5.23;;;1.73;;
7473;SDS011;3778;42.572;23.426;2022-11-20T05:11:01;4.47;;;1.40;;
7473;SDS011;3778;42.572;23.426;2022-11-20T05:13:28;2.10;;;1.43;;
7473;SDS011;3778;42.572;23.426;2022-11-20T05:15:55;5.47;;;1.60;;
7473;SDS011;3778;42.572;23.426;2022-11-20T05:18:29;3.43;;;1.40;;
7473;SDS011;3778;42.572;23.426;2022-11-20T05:20:55;1.90;;;1.30;;
7473;SDS011;3778;42.572;23.426;2022-11-20T05:23:23;4.80;;;1.70;;
7473;SDS011;3778;42.572;23.426;2022-11-20T05:25:51;2.27;;;1.77;;
7473;SDS011;3778;42.572;23.426;2022-11-20T05:28:19;3.43;;;1.70;;
7473;SDS011;3778;42.572;23.426;2022-11-20T05:30:46;5.30;;;1.37;;
7473;SDS011;3778;42.572;23.426;2022-11-20T05:33:12;5.93;;;1.57;;
7473;SDS011;3778;42.572;23.426;2022-11-20T05:35:41;2.53;;;1.40;;
7473;SDS011;3778;42.572;23.426;2022-11-20T05:38:07;5.40;;;1.50;;
7473;SDS011;3778;42.572;23.426;2022-11-20T05:40:34;4.77;;;1.80;;
7473;SDS011;3778;42.572;23.426;2022-11-20T05:43:01;2.20;;;1.40;;
7473;SDS011;3778;42.572;23.426;2022-11-20T05:45:28;3.53;;;1.60;;
7473;SDS011;3778;42.572;23.426;2022-11-20T05:47:57;4.73;;;1.63;;
7473;SDS011;3778;42.572;23.426;2022-11-20T05:50:24;3.37;;;1.40;;
7473;SDS011;3778;42.572;23.426;2022-11-20T05:52:52;3.67;;;1.60;;
7473;SDS011;3778;42.572;23.426;2022-11-20T05:55:19;2.67;;;1.57;;
7473;SDS011;3778;42.572;23.426;2022-11-20T05:57:46;3.47;;;1.60;;
7473;SDS011;3778;42.572;23.426;2022-11-20T06:00:13;3.90;;;2.17;;
7473;SDS011;3778;42.572;23.426;2022-11-20T06:02:40;3.80;;;1.50;;
7473;SDS011;3778;42.572;23.426;2022-11-20T06:05:07;4.30;;;1.60;;
7473;SDS011;3778;42.572;23.426;2022-11-20T06:07:34;4.23;;;1.47;;
7473;SDS011;3778;42.572;23.426;2022-11-20T06:10:03;2.03;;;1.50;;
7473;SDS011;3778;42.572;23.426;2022-11-20T06:12:31;1.63;;;1.40;;
7473;SDS011;3778;42.572;23.426;2022-11-20T06:14:59;3.43;;;1.50;;
7473;SDS011;3778;42.572;23.426;2022-11-20T06:17:25;8.40;;;1.50;;
7473;SDS011;3778;42.572;23.426;2022-11-20T06:19:53;2.13;;;1.50;;
7473;SDS011;3778;42.572;23.426;2022-11-20T06:22:19;5.67;;;1.57;;
7473;SDS011;3778;42.572;23.426;2022-11-20T06:24:46;2.07;;;1.43;;
7473;SDS011;3778;42.572;23.426;2022-11-20T06:27:15;9.00;;;1.57;;
7473;SDS011;3778;42.572;23.426;2022-11-20T06:29:42;3.00;;;1.47;;
7473;SDS011;3778;42.572;23.426;2022-11-20T06:32:10;6.40;;;1.67;;
7473;SDS011;3778;42.572;23.426;2022-11-20T06:34:37;2.07;;;1.57;;
7473;SDS011;3778;42.572;23.426;2022-11-20T06:37:03;3.67;;;1.60;;
7473;SDS011;3778;42.572;23.426;2022-11-20T06:39:30;5.50;;;1.40;;
7473;SDS011;3778;42.572;23.426;2022-11-20T06:41:57;2.60;;;1.73;;
7473;SDS011;3778;42.572;23.426;2022-11-20T06:44:25;4.70;;;1.67;;
7473;SDS011;3778;42.572;23.426;2022-11-20T06:46:52;2.50;;;1.50;;
7473;SDS011;3778;42.572;23.426;2022-11-20T06:49:19;2.77;;;1.53;;
7473;SDS011;3778;42.572;23.426;2022-11-20T06:51:45;4.90;;;1.40;;
7473;SDS011;3778;42.572;23.426;2022-11-20T06:54:12;2.53;;;1.53;;
7473;SDS011;3778;42.572;23.426;2022-11-20T06:56:39;5.43;;;1.30;;
7473;SDS011;3778;42.572;23.426;2022-11-20T06:59:06;3.37;;;1.60;;
7473;SDS011;3778;42.572;23.426;2022-11-20T07:01:34;10.10;;;3.33;;
7473;SDS011;3778;42.572;23.426;2022-11-20T07:04:01;1.80;;;1.47;;
7473;SDS011;3778;42.572;23.426;2022-11-20T07:06:28;3.17;;;1.60;;
7473;SDS011;3778;42.572;23.426;2022-11-20T07:08:55;5.50;;;1.57;;
7473;SDS011;3778;42.572;23.426;2022-11-20T07:11:22;9.23;;;1.70;;
7473;SDS011;3778;42.572;23.426;2022-11-20T07:13:49;5.03;;;1.77;;
7473;SDS011;3778;42.572;23.426;2022-11-20T07:16:16;4.53;;;1.90;;
7473;SDS011;3778;42.572;23.426;2022-11-20T07:18:44;5.93;;;1.70;;
7473;SDS011;3778;42.572;23.426;2022-11-20T07:21:11;4.73;;;1.60;;
7473;SDS011;3778;42.572;23.426;2022-11-20T07:23:38;9.40;;;1.60;;
7473;SDS011;3778;42.572;23.426;2022-11-20T07:26:05;2.53;;;1.70;;
7473;SDS011;3778;42.572;23.426;2022-11-20T07:28:33;2.23;;;1.47;;
7473;SDS011;3778;42.572;23.426;2022-11-20T07:31:00;3.97;;;1.40;;
7473;SDS011;3778;42.572;23.426;2022-11-20T07:33:27;3.70;;;1.70;;
7473;SDS011;3778;42.572;23.426;2022-11-20T07:35:55;3.63;;;1.57;;
7473;SDS011;3778;42.572;23.426;2022-11-20T07:38:22;3.73;;;1.40;;
7473;SDS011;3778;42.572;23.426;2022-11-20T07:40:51;2.63;;;1.70;;
7473;SDS011;3778;42.572;23.426;2022-11-20T07:43:20;7.07;;;2.07;;
7473;SDS011;3778;42.572;23.426;2022-11-20T07:45:46;3.03;;;1.50;;
7473;SDS011;3778;42.572;23.426;2022-11-20T07:48:13;4.77;;;1.50;;
7473;SDS011;3778;42.572;23.426;2022-11-20T07:50:40;3.57;;;1.23;;
7473;SDS011;3778;42.572;23.426;2022-11-20T07:53:08;3.90;;;1.60;;
7473;SDS011;3778;42.572;23.426;2022-11-20T07:55:35;8.60;;;1.40;;
7473;SDS011;3778;42.572;23.426;2022-11-20T07:58:01;2.90;;;1.60;;
7473;SDS011;3778;42.572;23.426;2022-11-20T08:00:28;4.07;;;1.37;;
7473;SDS011;3778;42.572;23.426;2022-11-20T08:02:55;3.60;;;1.50;;
7473;SDS011;3778;42.572;23.426;2022-11-20T08:05:21;3.50;;;1.67;;
7473;SDS011;3778;42.572;23.426;2022-11-20T08:07:48;3.93;;;1.60;;
7473;SDS011;3778;42.572;23.426;2022-11-20T08:10:17;2.53;;;1.37;;
7473;SDS011;3778;42.572;23.426;2022-11-20T08:12:44;5.17;;;1.50;;
7473;SDS011;3778;42.572;23.426;2022-11-20T08:15:29;2.60;;;1.47;;
7473;SDS011;3778;42.572;23.426;2022-11-20T08:17:59;5.67;;;1.70;;
7473;SDS011;3778;42.572;23.426;2022-11-20T08:20:27;3.30;;;1.50;;
7473;SDS011;3778;42.572;23.426;2022-11-20T08:22:57;4.63;;;1.70;;
7473;SDS011;3778;42.572;23.426;2022-11-20T08:25:26;4.97;;;1.70;;
7473;SDS011;3778;42.572;23.426;2022-11-20T08:27:53;3.53;;;1.50;;
7473;SDS011;3778;42.572;23.426;2022-11-20T08:30:20;3.87;;;1.50;;
7473;SDS011;3778;42.572;23.426;2022-11-20T08:32:46;1.50;;;1.40;;
7473;SDS011;3778;42.572;23.426;2022-11-20T08:35:13;4.30;;;1.50;;
7473;SDS011;3778;42.572;23.426;2022-11-20T08:37:40;3.07;;;1.77;;
7473;SDS011;3778;42.572;23.426;2022-11-20T08:40:08;2.60;;;1.40;;
7473;SDS011;3778;42.572;23.426;2022-11-20T08:42:45;4.50;;;1.90;;
7473;SDS011;3778;42.572;23.426;2022-11-20T08:45:12;4.47;;;1.70;;
7473;SDS011;3778;42.572;23.426;2022-11-20T08:47:39;2.40;;;1.60;;
7473;SDS011;3778;42.572;23.426;2022-11-20T08:50:06;2.47;;;1.40;;
7473;SDS011;3778;42.572;23.426;2022-11-20T08:52:34;2.07;;;1.70;;
7473;SDS011;3778;42.572;23.426;2022-11-20T08:55:00;2.67;;;1.60;;
7473;SDS011;3778;42.572;23.426;2022-11-20T08:57:27;3.60;;;1.57;;
7473;SDS011;3778;42.572;23.426;2022-11-20T08:59:55;5.23;;;2.27;;
7473;SDS011;3778;42.572;23.426;2022-11-20T09:02:22;9.60;;;2.20;;
7473;SDS011;3778;42.572;23.426;2022-11-20T09:04:49;9.00;;;2.10;;
7473;SDS011;3778;42.572;23.426;2022-11-20T09:07:15;9.30;;;1.80;;
7473;SDS011;3778;42.572;23.426;2022-11-20T09:09:42;4.20;;;1.80;;
7473;SDS011;3778;42.572;23.426;2022-11-20T09:12:09;9.03;;;2.23;;
7473;SDS011;3778;42.572;23.426;2022-11-20T09:14:36;3.40;;;2.10;;
7473;SDS011;3778;42.572;23.426;2022-11-20T09:17:04;5.23;;;2.10;;
7473;SDS011;3778;42.572;23.426;2022-11-20T09:19:32;6.37;;;2.40;;
7473;SDS011;3778;42.572;23.426;2022-11-20T09:21:59;13.10;;;2.87;;
7473;SDS011;3778;42.572;23.426;2022-11-20T09:24:26;4.70;;;3.00;;
7473;SDS011;3778;42.572;23.426;2022-11-20T09:26:53;8.10;;;3.57;;
7473;SDS011;3778;42.572;23.426;2022-11-20T09:29:19;11.90;;;3.70;;
7473;SDS011;3778;42.572;23.426;2022-11-20T09:31:46;7.07;;;3.60;;
7473;SDS011;3778;42.572;23.426;2022-11-20T09:34:14;7.77;;;3.00;;
7473;SDS011;3778;42.572;23.426;2022-11-20T09:36:41;8.33;;;3.00;;
7473;SDS011;3778;42.572;23.426;2022-11-20T09:39:08;9.07;;;3.67;;
7473;SDS011;3778;42.572;23.426;2022-11-20T09:41:48;11.97;;;4.13;;
7473;SDS011;3778;42.572;23.426;2022-11-20T09:44:27;11.37;;;4.20;;
7473;SDS011;3778;42.572;23.426;2022-11-20T09:47:07;7.00;;;3.87;;
7473;SDS011;3778;42.572;23.426;2022-11-20T09:49:44;6.67;;;4.60;;
7473;SDS011;3778;42.572;23.426;2022-11-20T09:52:26;7.70;;;4.43;;
7473;SDS011;3778;42.572;23.426;2022-11-20T09:55:02;8.93;;;3.33;;
7473;SDS011;3778;42.572;23.426;2022-11-20T09:57:33;11.67;;;3.83;;
7473;SDS011;3778;42.572;23.426;2022-11-20T10:00:04;7.70;;;4.03;;
7473;SDS011;3778;42.572;23.426;2022-11-20T10:02:35;15.67;;;4.23;;
7473;SDS011;3778;42.572;23.426;2022-11-20T10:05:10;9.73;;;3.87;;
7473;SDS011;3778;42.572;23.426;2022-11-20T10:07:44;7.30;;;4.03;;
7473;SDS011;3778;42.572;23.426;2022-11-20T10:10:15;10.73;;;4.13;;
7473;SDS011;3778;42.572;23.426;2022-11-20T10:12:50;8.33;;;4.20;;
7473;SDS011;3778;42.572;23.426;2022-11-20T10:15:32;6.83;;;4.13;;
7473;SDS011;3778;42.572;23.426;2022-11-20T10:18:07;16.40;;;4.87;;
7473;SDS011;3778;42.572;23.426;2022-11-20T10:20:46;9.97;;;4.37;;
7473;SDS011;3778;42.572;23.426;2022-11-20T10:23:23;6.87;;;3.63;;
7473;SDS011;3778;42.572;23.426;2022-11-20T10:26:21;9.17;;;3.90;;
7473;SDS011;3778;42.572;23.426;2022-11-20T10:29:01;9.20;;;3.80;;
7473;SDS011;3778;42.572;23.426;2022-11-20T10:31:36;7.77;;;4.00;;
7473;SDS011;3778;42.572;23.426;2022-11-20T10:34:06;8.83;;;3.80;;
7473;SDS011;3778;42.572;23.426;2022-11-20T10:36:40;11.43;;;3.70;;
7473;SDS011;3778;42.572;23.426;2022-11-20T10:39:12;9.53;;;3.23;;
7473;SDS011;3778;42.572;23.426;2022-11-20T10:41:45;9.10;;;3.43;;
7473;SDS011;3778;42.572;23.426;2022-11-20T10:44:17;11.27;;;3.03;;
7473;SDS011;3778;42.572;23.426;2022-11-20T10:47:14;5.53;;;3.17;;
7473;SDS011;3778;42.572;23.426;2022-11-20T10:49:42;10.17;;;3.10;;
7473;SDS011;3778;42.572;23.426;2022-11-20T10:52:16;11.23;;;3.10;;
7473;SDS011;3778;42.572;23.426;2022-11-20T10:54:53;9.33;;;2.93;;
7473;SDS011;3778;42.572;23.426;2022-11-20T10:57:31;10.00;;;4.20;;
7473;SDS011;3778;42.572;23.426;2022-11-20T11:00:13;7.37;;;3.10;;
7473;SDS011;3778;42.572;23.426;2022-11-20T11:02:43;9.73;;;3.40;;
7473;SDS011;3778;42.572;23.426;2022-11-20T11:05:18;6.33;;;2.83;;
7473;SDS011;3778;42.572;23.426;2022-11-20T11:07:55;9.70;;;3.17;;
7473;SDS011;3778;42.572;23.426;2022-11-20T11:10:24;11.87;;;3.00;;
7473;SDS011;3778;42.572;23.426;2022-11-20T11:12:56;11.33;;;3.23;;
7473;SDS011;3778;42.572;23.426;2022-11-20T11:15:26;8.27;;;2.93;;
7473;SDS011;3778;42.572;23.426;2022-11-20T11:17:54;10.27;;;2.77;;
7473;SDS011;3778;42.572;23.426;2022-11-20T11:20:22;12.67;;;2.83;;
7473;SDS011;3778;42.572;23.426;2022-11-20T11:22:51;10.33;;;3.33;;
7473;SDS011;3778;42.572;23.426;2022-11-20T11:25:22;7.97;;;2.83;;
7473;SDS011;3778;42.572;23.426;2022-11-20T11:27:52;12.03;;;3.17;;
7473;SDS011;3778;42.572;23.426;2022-11-20T11:30:21;8.80;;;2.87;;
7473;SDS011;3778;42.572;23.426;2022-11-20T11:32:49;5.53;;;2.13;;
7473;SDS011;3778;42.572;23.426;2022-11-20T11:35:20;7.53;;;3.27;;
7473;SDS011;3778;42.572;23.426;2022-11-20T11:37:49;11.03;;;3.40;;
7473;SDS011;3778;42.572;23.426;2022-11-20T11:40:19;3.83;;;1.67;;
7473;SDS011;3778;42.572;23.426;2022-11-20T11:42:55;8.60;;;2.57;;
7473;SDS011;3778;42.572;23.426;2022-11-20T11:45:24;3.67;;;1.20;;
7473;SDS011;3778;42.572;23.426;2022-11-20T11:47:50;2.07;;;1.50;;
7473;SDS011;3778;42.572;23.426;2022-11-20T11:50:19;1.00;;;1.00;;
7473;SDS011;3778;42.572;23.426;2022-11-20T11:52:54;2.57;;;1.40;;
7473;SDS011;3778;42.572;23.426;2022-11-20T11:55:34;4.03;;;1.07;;
7473;SDS011;3778;42.572;23.426;2022-11-20T11:58:09;1.83;;;0.90;;
7473;SDS011;3778;42.572;23.426;2022-11-20T12:00:41;2.03;;;0.80;;
7473;SDS011;3778;42.572;23.426;2022-11-20T12:03:18;0.70;;;0.70;;
7473;SDS011;3778;42.572;23.426;2022-11-20T12:05:49;3.50;;;1.10;;
7473;SDS011;3778;42.572;23.426;2022-11-20T12:08:22;4.83;;;1.10;;
7473;SDS011;3778;42.572;23.426;2022-11-20T12:10:54;3.80;;;1.10;;
7473;SDS011;3778;42.572;23.426;2022-11-20T12:13:34;3.97;;;1.60;;
7473;SDS011;3778;42.572;23.426;2022-11-20T12:16:07;3.53;;;1.40;;
7473;SDS011;3778;42.572;23.426;2022-11-20T12:18:38;1.37;;;1.10;;
7473;SDS011;3778;42.572;23.426;2022-11-20T12:21:10;2.33;;;1.03;;
7473;SDS011;3778;42.572;23.426;2022-11-20T12:23:44;1.73;;;1.07;;
7473;SDS011;3778;42.572;23.426;2022-11-20T12:26:22;3.47;;;1.10;;
7473;SDS011;3778;42.572;23.426;2022-11-20T12:29:02;2.87;;;1.00;;
7473;SDS011;3778;42.572;23.426;2022-11-20T12:34:32;1.13;;;0.90;;
7473;SDS011;3778;42.572;23.426;2022-11-20T12:37:12;4.67;;;2.10;;
7473;SDS011;3778;42.572;23.426;2022-11-20T12:39:47;3.70;;;1.30;;
7473;SDS011;3778;42.572;23.426;2022-11-20T12:42:25;1.63;;;1.27;;
7473;SDS011;3778;42.572;23.426;2022-11-20T12:45:44;1.77;;;1.20;;
7473;SDS011;3778;42.572;23.426;2022-11-20T12:51:16;3.07;;;1.20;;
7473;SDS011;3778;42.572;23.426;2022-11-20T12:53:55;5.67;;;1.20;;
7473;SDS011;3778;42.572;23.426;2022-11-20T12:56:33;4.60;;;1.23;;
7473;SDS011;3778;42.572;23.426;2022-11-20T12:59:20;2.87;;;1.30;;
7473;SDS011;3778;42.572;23.426;2022-11-20T13:01:58;2.57;;;1.80;;
7473;SDS011;3778;42.572;23.426;2022-11-20T13:04:43;1.70;;;1.27;;
7473;SDS011;3778;42.572;23.426;2022-11-20T13:07:22;2.50;;;1.50;;
7473;SDS011;3778;42.572;23.426;2022-11-20T13:09:53;3.93;;;1.57;;
7473;SDS011;3778;42.572;23.426;2022-11-20T13:12:22;3.53;;;1.47;;
7473;SDS011;3778;42.572;23.426;2022-11-20T13:14:58;4.40;;;1.50;;
7473;SDS011;3778;42.572;23.426;2022-11-20T13:17:33;1.67;;;1.30;;
7473;SDS011;3778;42.572;23.426;2022-11-20T13:20:05;3.13;;;1.53;;
7473;SDS011;3778;42.572;23.426;2022-11-20T13:22:42;2.23;;;1.27;;
7473;SDS011;3778;42.572;23.426;2022-11-20T13:25:21;5.10;;;1.70;;
7473;SDS011;3778;42.572;23.426;2022-11-20T13:27:49;2.67;;;1.20;;
7473;SDS011;3778;42.572;23.426;2022-11-20T13:32:49;5.90;;;1.57;;
7473;SDS011;3778;42.572;23.426;2022-11-20T13:35:25;3.00;;;1.20;;
7473;SDS011;3778;42.572;23.426;2022-11-20T13:38:00;6.80;;;2.17;;
7473;SDS011;3778;42.572;23.426;2022-11-20T13:40:32;8.60;;;1.73;;
7473;SDS011;3778;42.572;23.426;2022-11-20T13:43:04;10.20;;;2.07;;
7473;SDS011;3778;42.572;23.426;2022-11-20T13:45:38;8.20;;;2.00;;
7473;SDS011;3778;42.572;23.426;2022-11-20T13:48:15;2.37;;;1.70;;
7473;SDS011;3778;42.572;23.426;2022-11-20T13:50:50;2.23;;;1.60;;
7473;SDS011;3778;42.572;23.426;2022-11-20T13:53:29;2.57;;;1.40;;
7473;SDS011;3778;42.572;23.426;2022-11-20T13:56:09;2.40;;;1.70;;
7473;SDS011;3778;42.572;23.426;2022-11-20T13:58:44;8.53;;;2.57;;
7473;SDS011;3778;42.572;23.426;2022-11-20T14:01:23;9.63;;;4.00;;
7473;SDS011;3778;42.572;23.426;2022-11-20T14:03:52;8.13;;;4.60;;
7473;SDS011;3778;42.572;23.426;2022-11-20T14:06:22;8.43;;;4.87;;
7473;SDS011;3778;42.572;23.426;2022-11-20T14:08:53;7.43;;;3.77;;
7473;SDS011;3778;42.572;23.426;2022-11-20T14:11:21;6.33;;;3.47;;
7473;SDS011;3778;42.572;23.426;2022-11-20T14:13:56;5.73;;;3.83;;
7473;SDS011;3778;42.572;23.426;2022-11-20T14:16:27;9.80;;;4.63;;
7473;SDS011;3778;42.572;23.426;2022-11-20T14:18:56;7.63;;;4.00;;
7473;SDS011;3778;42.572;23.426;2022-11-20T14:21:24;5.60;;;3.57;;
7473;SDS011;3778;42.572;23.426;2022-11-20T14:23:54;9.23;;;4.07;;
7473;SDS011;3778;42.572;23.426;2022-11-20T14:26:29;5.80;;;3.30;;
7473;SDS011;3778;42.572;23.426;2022-11-20T14:28:56;7.47;;;4.20;;
7473;SDS011;3778;42.572;23.426;2022-11-20T14:31:23;8.80;;;3.97;;
7473;SDS011;3778;42.572;23.426;2022-11-20T14:33:53;11.30;;;4.27;;
7473;SDS011;3778;42.572;23.426;2022-11-20T14:36:21;8.73;;;3.60;;
7473;SDS011;3778;42.572;23.426;2022-11-20T14:38:50;5.30;;;2.70;;
7473;SDS011;3778;42.572;23.426;2022-11-20T14:41:18;8.80;;;3.10;;
7473;SDS011;3778;42.572;23.426;2022-11-20T14:43:46;10.53;;;2.97;;
7473;SDS011;3778;42.572;23.426;2022-11-20T14:46:16;9.77;;;3.77;;
7473;SDS011;3778;42.572;23.426;2022-11-20T14:48:44;5.00;;;2.90;;
7473;SDS011;3778;42.572;23.426;2022-11-20T14:51:24;5.90;;;2.80;;
7473;SDS011;3778;42.572;23.426;2022-11-20T14:53:54;8.40;;;2.77;;
7473;SDS011;3778;42.572;23.426;2022-11-20T14:56:21;4.77;;;2.90;;
7473;SDS011;3778;42.572;23.426;2022-11-20T14:58:55;5.70;;;2.90;;
7473;SDS011;3778;42.572;23.426;2022-11-20T15:01:25;7.00;;;3.63;;
7473;SDS011;3778;42.572;23.426;2022-11-20T15:03:58;9.90;;;3.40;;
7473;SDS011;3778;42.572;23.426;2022-11-20T15:06:28;6.70;;;3.83;;
7473;SDS011;3778;42.572;23.426;2022-11-20T15:08:56;7.43;;;4.10;;
7473;SDS011;3778;42.572;23.426;2022-11-20T15:11:27;7.83;;;3.80;;
7473;SDS011;3778;42.572;23.426;2022-11-20T15:13:56;5.73;;;3.17;;
7473;SDS011;3778;42.572;23.426;2022-11-20T15:16:27;6.23;;;3.43;;
7473;SDS011;3778;42.572;23.426;2022-11-20T15:18:54;10.17;;;3.73;;
7473;SDS011;3778;42.572;23.426;2022-11-20T15:21:21;21.97;;;9.33;;
7473;SDS011;3778;42.572;23.426;2022-11-20T15:23:49;24.30;;;10.73;;
7473;SDS011;3778;42.572;23.426;2022-11-20T15:26:18;21.27;;;11.03;;
7473;SDS011;3778;42.572;23.426;2022-11-20T15:28:48;34.20;;;15.17;;